Time;durP1;ratioP1;P1;durP2;ratioP2;P2;SDS_P1;SDS_P2;PMS_P1;PMS_P2;Temp;Humidity;BMP_temperature;BMP_pressure;BME280_temperature;BME280_humidity;BME280_pressure;Samples;Min_cycle;Max_cycle;Signal;HPM_P1;HPM_P2
2020/12/25 00:01:58;;;;;;;0.60;0.60;;;;;;;7.41;79.24;94949.75;5069913;28;20226;-73
2020/12/25 00:04:24;;;;;;;0.70;0.70;;;;;;;7.35;79.47;94943.53;5069326;28;20220;-74
2020/12/25 00:06:51;;;;;;;0.70;0.70;;;;;;;7.33;79.53;94940.34;5069426;28;20224;-75
2020/12/25 00:09:17;;;;;;;0.60;0.60;;;;;;;7.47;79.46;94949.06;5069772;28;20902;-74
2020/12/25 00:11:43;;;;;;;0.70;0.70;;;;;;;7.57;79.97;94932.47;5070019;28;20204;-74
2020/12/25 00:14:10;;;;;;;0.80;0.67;;;;;;;7.55;79.31;94943.88;5069400;28;20199;-73
2020/12/25 00:16:36;;;;;;;0.80;0.80;;;;;;;7.61;79.54;94949.09;5069249;28;20208;-74
2020/12/25 00:19:02;;;;;;;0.70;0.70;;;;;;;7.60;79.20;94944.16;5069164;28;20189;-73
2020/12/25 00:21:28;;;;;;;0.60;0.60;;;;;;;7.51;78.66;94943.41;5069586;28;20200;-75
2020/12/25 00:23:55;;;;;;;0.50;0.50;;;;;;;7.47;77.72;94949.06;5068809;28;20228;-72
2020/12/25 00:26:25;;;;;;;0.67;0.67;;;;;;;7.35;77.83;94953.00;5069288;28;20196;-73
2020/12/25 00:28:51;;;;;;;0.60;0.60;;;;;;;7.34;78.09;94954.75;5069186;28;20699;-73
2020/12/25 00:31:24;;;;;;;0.50;0.50;;;;;;;7.22;77.97;94951.00;5069596;28;20231;-72
2020/12/25 00:33:50;;;;;;;0.70;0.70;;;;;;;7.25;78.21;94950.69;5068778;28;20193;-73
2020/12/25 00:36:23;;;;;;;0.70;0.70;;;;;;;7.26;78.20;94953.06;5069375;28;20226;-73
2020/12/25 00:38:49;;;;;;;0.60;0.60;;;;;;;7.08;77.74;94962.78;5069259;28;20251;-72
2020/12/25 00:41:16;;;;;;;0.60;0.60;;;;;;;7.02;78.38;94973.69;5069122;28;20690;-74
2020/12/25 00:43:42;;;;;;;0.53;0.53;;;;;;;7.11;78.65;94970.13;5068444;28;20228;-73
2020/12/25 00:46:10;;;;;;;0.70;0.70;;;;;;;7.20;77.89;94961.44;5068987;28;20200;-72
2020/12/25 00:48:36;;;;;;;0.70;0.70;;;;;;;7.24;77.84;94961.88;5068556;28;20227;-74
2020/12/25 00:51:02;;;;;;;0.50;0.50;;;;;;;7.25;77.74;94964.28;5069288;28;20201;-74
2020/12/25 00:53:28;;;;;;;0.70;0.70;;;;;;;7.18;77.70;94971.03;5068837;28;20193;-73
2020/12/25 00:55:53;;;;;;;0.77;0.77;;;;;;;7.29;77.42;94964.72;5068686;28;20683;-73
2020/12/25 00:58:20;;;;;;;0.80;0.80;;;;;;;7.26;77.67;94963.31;5068508;28;20227;-74
2020/12/25 01:00:46;;;;;;;0.60;0.60;;;;;;;7.20;77.65;94970.88;5068665;28;20203;-75
2020/12/25 01:03:12;;;;;;;0.70;0.70;;;;;;;7.27;77.47;94970.03;5067765;28;20209;-73
2020/12/25 01:05:39;;;;;;;0.60;0.60;;;;;;;7.34;77.80;94967.56;5068455;28;20221;-73
2020/12/25 01:08:05;;;;;;;0.80;0.80;;;;;;;7.26;77.16;94973.56;5068470;28;20221;-73
2020/12/25 01:10:31;;;;;;;0.80;0.80;;;;;;;7.22;77.29;94974.84;5068312;28;20709;-73
2020/12/25 01:12:57;;;;;;;0.70;0.70;;;;;;;7.24;77.60;94975.47;5068478;28;20212;-74
2020/12/25 01:15:24;;;;;;;0.80;0.80;;;;;;;7.25;77.48;94979.63;5068240;28;20668;-72
2020/12/25 01:17:50;;;;;;;0.83;0.80;;;;;;;7.31;77.61;94977.38;5068376;28;20566;-75
2020/12/25 01:20:16;;;;;;;0.70;0.70;;;;;;;7.38;77.04;94984.19;5067966;28;20200;-75
2020/12/25 01:22:42;;;;;;;1.93;0.83;;;;;;;7.37;76.63;94989.47;5068202;28;20236;-73
2020/12/25 01:25:08;;;;;;;0.97;0.97;;;;;;;7.39;76.84;94992.66;5067821;28;20217;-73
2020/12/25 01:27:33;;;;;;;0.80;0.80;;;;;;;7.42;77.04;94990.56;5067775;28;20227;-72
2020/12/25 01:29:59;;;;;;;0.90;0.90;;;;;;;7.42;76.95;94994.88;5067884;28;20201;-73
2020/12/25 01:32:26;;;;;;;0.80;0.80;;;;;;;7.50;76.87;94998.19;5068387;28;20219;-74
2020/12/25 01:34:52;;;;;;;0.80;0.80;;;;;;;7.42;76.19;94997.44;5068175;28;20193;-73
2020/12/25 01:37:18;;;;;;;0.90;0.90;;;;;;;7.35;76.65;94999.06;5068197;28;20722;-72
2020/12/25 01:39:44;;;;;;;0.80;0.80;;;;;;;7.41;76.73;95000.97;5067796;28;20205;-74
2020/12/25 01:42:10;;;;;;;0.87;0.87;;;;;;;7.45;76.76;95003.03;5068127;28;20936;-74
2020/12/25 01:44:35;;;;;;;0.80;0.80;;;;;;;7.49;77.01;95008.59;5067835;28;20220;-73
2020/12/25 01:47:02;;;;;;;0.90;0.90;;;;;;;7.50;76.68;94999.94;5068024;28;20721;-73
2020/12/25 01:49:29;;;;;;;0.90;0.90;;;;;;;7.39;77.18;95008.81;5068133;28;20270;-74
2020/12/25 01:51:55;;;;;;;0.97;0.97;;;;;;;7.45;77.09;94995.34;5068027;28;20735;-74
2020/12/25 01:54:21;;;;;;;0.90;0.90;;;;;;;7.52;76.79;94998.78;5067457;28;20197;-71
2020/12/25 01:56:48;;;;;;;1.00;1.00;;;;;;;7.48;77.02;94997.56;5067430;28;20609;-73
2020/12/25 01:59:14;;;;;;;1.20;1.10;;;;;;;7.39;77.03;95002.91;5068213;28;20208;-73
2020/12/25 02:01:40;;;;;;;1.00;1.00;;;;;;;7.41;77.47;95003.53;5067459;28;20197;-74
2020/12/25 02:04:06;;;;;;;1.00;1.00;;;;;;;7.45;77.31;94997.91;5067772;28;20228;-73
2020/12/25 02:06:38;;;;;;;1.00;1.00;;;;;;;7.53;76.78;94999.59;5067670;28;20589;-75
2020/12/25 02:09:04;;;;;;;1.00;1.00;;;;;;;7.56;76.40;95007.72;5068027;28;20808;-75
2020/12/25 02:11:32;;;;;;;1.30;1.20;;;;;;;7.55;76.83;95007.91;5067694;28;20246;-76
2020/12/25 02:13:58;;;;;;;1.30;1.20;;;;;;;7.48;76.96;95001.88;5066995;28;20220;-73
2020/12/25 02:16:26;;;;;;;1.10;1.10;;;;;;;7.49;76.90;95011.97;5067405;28;20204;-73
2020/12/25 02:18:52;;;;;;;1.10;1.10;;;;;;;7.44;76.96;95008.31;5067232;28;20254;-72
2020/12/25 02:21:19;;;;;;;1.93;1.10;;;;;;;7.42;77.20;95011.03;5067146;28;20626;-73
2020/12/25 02:23:45;;;;;;;1.10;1.10;;;;;;;7.42;77.24;95017.94;5067229;28;20232;-72
2020/12/25 02:26:11;;;;;;;1.10;1.10;;;;;;;7.41;77.73;95017.13;5066677;28;20193;-73
2020/12/25 02:28:37;;;;;;;1.20;1.10;;;;;;;7.32;78.40;95014.78;5067170;28;20217;-76
2020/12/25 02:31:04;;;;;;;1.20;1.20;;;;;;;7.22;78.17;95013.25;5067208;28;20218;-74
2020/12/25 02:33:30;;;;;;;1.30;1.20;;;;;;;7.24;78.97;95018.22;5067497;28;20211;-73
2020/12/25 02:35:55;;;;;;;1.23;1.20;;;;;;;7.30;78.22;95020.09;5067132;28;20197;-74
2020/12/25 02:38:22;;;;;;;1.30;1.30;;;;;;;7.32;78.75;95015.56;5067653;28;20225;-72
2020/12/25 02:40:48;;;;;;;1.40;1.30;;;;;;;7.30;79.51;95024.41;5067036;28;20567;-72
2020/12/25 02:43:14;;;;;;;1.63;1.53;;;;;;;7.35;79.32;95028.03;5067482;28;20203;-73
2020/12/25 02:45:40;;;;;;;1.50;1.40;;;;;;;7.23;79.32;95031.97;5067754;28;20221;-72
2020/12/25 02:48:06;;;;;;;1.33;1.30;;;;;;;7.25;79.96;95035.16;5067160;28;20223;-73
2020/12/25 02:50:32;;;;;;;1.30;1.20;;;;;;;7.25;80.32;95041.09;5067372;28;20205;-73
2020/12/25 02:52:58;;;;;;;1.40;1.30;;;;;;;7.21;80.99;95050.06;5066675;28;20233;-73
2020/12/25 02:55:24;;;;;;;1.53;1.43;;;;;;;7.14;81.52;95049.13;5066265;28;20204;-73
2020/12/25 02:57:50;;;;;;;1.33;1.30;;;;;;;6.95;80.22;95049.53;5066714;28;20216;-74
2020/12/25 03:00:16;;;;;;;1.50;1.40;;;;;;;6.78;79.69;95063.38;5067011;28;20207;-73
2020/12/25 03:02:42;;;;;;;1.60;1.50;;;;;;;6.61;80.49;95056.72;5066346;28;20193;-73
2020/12/25 03:05:08;;;;;;;1.40;1.30;;;;;;;6.46;80.38;95067.63;5066554;28;20696;-73
2020/12/25 03:07:34;;;;;;;1.20;1.20;;;;;;;6.43;81.23;95059.50;5066924;28;20233;-73
2020/12/25 03:10:00;;;;;;;1.20;1.20;;;;;;;6.26;82.23;95060.50;5066591;28;20204;-73
2020/12/25 03:12:26;;;;;;;1.13;1.13;;;;;;;6.21;80.36;95082.22;5067124;28;20209;-72
2020/12/25 03:14:52;;;;;;;0.97;0.97;;;;;;;6.09;80.70;95078.41;5066405;28;20199;-73
2020/12/25 03:17:18;;;;;;;0.90;0.90;;;;;;;5.87;79.90;95091.81;5066948;28;20229;-75
2020/12/25 03:19:44;;;;;;;0.87;0.87;;;;;;;5.97;79.02;95089.91;5066524;28;20730;-73
2020/12/25 03:22:10;;;;;;;0.90;0.90;;;;;;;5.84;78.90;95100.56;5066672;28;20205;-73
2020/12/25 03:24:36;;;;;;;0.77;0.77;;;;;;;5.79;79.42;95090.03;5065839;28;20221;-73
2020/12/25 03:27:02;;;;;;;0.80;0.80;;;;;;;5.73;78.48;95103.44;5070186;28;20232;-73
2020/12/25 03:29:28;;;;;;;0.80;0.80;;;;;;;5.74;79.03;95109.34;5070210;28;20203;-73
2020/12/25 03:31:54;;;;;;;0.80;0.80;;;;;;;5.71;79.34;95112.22;5070132;28;20629;-73
2020/12/25 03:34:20;;;;;;;1.63;0.70;;;;;;;5.79;78.78;95118.13;5070063;28;20196;-73
2020/12/25 03:36:46;;;;;;;0.70;0.70;;;;;;;5.81;78.47;95116.22;5070317;28;20205;-72
2020/12/25 03:39:12;;;;;;;0.60;0.60;;;;;;;5.88;78.87;95116.38;5070151;28;20200;-75
2020/12/25 03:41:38;;;;;;;0.60;0.60;;;;;;;5.78;78.31;95128.50;5070701;28;20350;-72
2020/12/25 03:44:04;;;;;;;0.70;0.70;;;;;;;5.71;79.34;95130.91;5069695;28;20224;-74
2020/12/25 03:46:37;;;;;;;0.60;0.60;;;;;;;5.64;78.93;95139.34;5070050;28;20204;-77
2020/12/25 03:49:04;;;;;;;0.73;0.73;;;;;;;5.60;79.04;95146.50;5069906;28;20288;-73
2020/12/25 03:51:30;;;;;;;0.60;0.60;;;;;;;5.70;78.92;95151.50;5069980;28;20193;-73
2020/12/25 03:53:56;;;;;;;0.67;0.67;;;;;;;5.80;78.63;95158.03;5069100;28;20722;-75
2020/12/25 03:56:22;;;;;;;0.70;0.70;;;;;;;5.70;77.79;95157.41;5069540;28;20212;-71
2020/12/25 03:58:48;;;;;;;0.53;0.53;;;;;;;5.64;77.40;95168.22;5069617;28;20212;-73
2020/12/25 04:01:14;;;;;;;0.57;0.57;;;;;;;5.63;78.14;95170.94;5069461;28;20226;-73
2020/12/25 04:03:41;;;;;;;0.60;0.60;;;;;;;5.56;78.31;95175.88;5069271;28;20241;-73
2020/12/25 04:06:07;;;;;;;0.60;0.60;;;;;;;5.47;78.28;95187.00;5068996;28;20189;-72
2020/12/25 04:08:33;;;;;;;0.70;0.70;;;;;;;5.47;78.84;95190.38;5068943;28;20217;-73
2020/12/25 04:10:58;;;;;;;0.50;0.50;;;;;;;5.41;78.59;95197.84;5069980;28;20204;-73
2020/12/25 04:13:24;;;;;;;0.60;0.60;;;;;;;5.38;77.99;95195.63;5069198;28;20197;-73
2020/12/25 04:15:50;;;;;;;0.60;0.60;;;;;;;5.35;78.56;95206.13;5069609;28;20690;-73
2020/12/25 04:18:16;;;;;;;0.50;0.50;;;;;;;5.38;78.56;95211.72;5068998;28;20212;-73
2020/12/25 04:20:43;;;;;;;0.60;0.60;;;;;;;5.34;78.06;95223.19;5069616;28;20242;-73
2020/12/25 04:23:09;;;;;;;0.50;0.50;;;;;;;5.33;78.33;95231.81;5068987;28;20212;-75
2020/12/25 04:25:35;;;;;;;0.57;0.57;;;;;;;5.31;77.67;95228.59;5068867;28;20636;-75
2020/12/25 04:28:01;;;;;;;0.60;0.60;;;;;;;5.40;77.72;95242.19;5068964;28;20217;-73
2020/12/25 04:30:27;;;;;;;0.50;0.50;;;;;;;5.31;78.17;95243.13;5069353;28;20189;-75
2020/12/25 04:32:52;;;;;;;0.50;0.50;;;;;;;5.34;78.77;95251.28;5068808;28;20223;-73
2020/12/25 04:35:18;;;;;;;0.60;0.60;;;;;;;5.27;77.54;95244.38;5068547;28;20193;-75
2020/12/25 04:37:45;;;;;;;0.90;0.90;;;;;;;5.24;78.90;95268.44;5069201;28;20224;-73
2020/12/25 04:40:11;;;;;;;0.70;0.70;;;;;;;5.22;78.07;95266.03;5069132;28;20196;-76
2020/12/25 04:42:40;;;;;;;0.53;0.53;;;;;;;5.22;78.12;95267.78;5068853;28;20563;-73
2020/12/25 04:45:06;;;;;;;0.70;0.70;;;;;;;5.24;78.26;95265.88;5068710;28;20216;-73
2020/12/25 04:47:34;;;;;;;0.67;0.67;;;;;;;5.24;78.76;95277.84;5068879;28;21006;-73
2020/12/25 04:50:00;;;;;;;0.60;0.60;;;;;;;5.24;78.71;95277.84;5068731;28;20236;-73
2020/12/25 04:52:26;;;;;;;0.70;0.70;;;;;;;5.24;78.03;95280.41;5069364;28;20189;-73
2020/12/25 04:54:53;;;;;;;1.80;0.80;;;;;;;5.26;77.91;95281.03;5068279;28;20205;-72
2020/12/25 04:57:19;;;;;;;0.60;0.60;;;;;;;5.28;78.38;95291.91;5069029;28;20795;-73
2020/12/25 04:59:44;;;;;;;0.70;0.70;;;;;;;5.34;77.77;95296.41;5068327;28;20193;-72
2020/12/25 05:02:10;;;;;;;0.60;0.60;;;;;;;5.24;77.91;95303.38;5068506;28;20197;-73
2020/12/25 05:04:36;;;;;;;0.70;0.70;;;;;;;5.18;78.02;95308.13;5068049;28;20872;-73
2020/12/25 05:07:02;;;;;;;0.70;0.70;;;;;;;5.22;77.59;95317.06;5068297;28;20231;-72
2020/12/25 05:09:29;;;;;;;0.60;0.60;;;;;;;5.15;78.28;95326.28;5068455;28;20263;-75
2020/12/25 05:11:57;;;;;;;0.73;0.73;;;;;;;5.27;78.25;95318.38;5068412;28;20200;-73
2020/12/25 05:14:25;;;;;;;0.60;0.60;;;;;;;5.32;77.55;95318.75;5067881;28;20216;-73
2020/12/25 05:16:54;;;;;;;0.70;0.70;;;;;;;5.25;77.34;95327.94;5068164;28;20200;-72
2020/12/25 05:19:24;;;;;;;0.67;0.67;;;;;;;5.22;77.77;95327.28;5067982;28;20204;-75
2020/12/25 05:21:52;;;;;;;0.67;0.67;;;;;;;5.20;77.88;95333.47;5068758;28;20208;-73
2020/12/25 05:24:18;;;;;;;0.63;0.63;;;;;;;5.17;78.34;95341.47;5067678;28;20311;-72
2020/12/25 05:26:51;;;;;;;0.70;0.70;;;;;;;5.17;78.30;95349.91;5068053;28;20254;-73
2020/12/25 05:29:18;;;;;;;0.70;0.70;;;;;;;5.14;78.51;95350.22;5067838;28;20721;-73
2020/12/25 05:31:47;;;;;;;0.60;0.60;;;;;;;5.08;78.82;95347.44;5068308;28;20204;-73
2020/12/25 05:34:14;;;;;;;0.60;0.60;;;;;;;5.10;78.97;95353.19;5067322;28;20284;-73
2020/12/25 05:36:48;;;;;;;0.70;0.70;;;;;;;4.80;78.94;95360.31;5067570;28;20201;-72
2020/12/25 05:39:24;;;;;;;0.70;0.70;;;;;;;4.82;79.51;95358.38;5068100;28;20263;-75
2020/12/25 05:41:54;;;;;;;0.70;0.70;;;;;;;4.78;79.86;95354.56;5067865;28;20193;-72
2020/12/25 05:44:21;;;;;;;0.90;0.90;;;;;;;4.80;80.17;95360.31;5067196;28;20721;-72
2020/12/25 05:46:48;;;;;;;0.80;0.80;;;;;;;4.91;79.54;95361.81;5067668;28;20200;-73
2020/12/25 05:49:14;;;;;;;0.90;0.90;;;;;;;4.95;79.25;95365.69;5067169;28;20197;-73
2020/12/25 05:51:46;;;;;;;1.30;0.90;;;;;;;4.97;79.77;95375.75;5067584;28;20308;-73
2020/12/25 05:54:18;;;;;;;1.00;1.00;;;;;;;5.00;79.26;95378.81;5067495;28;20216;-72
2020/12/25 05:56:45;;;;;;;0.97;0.97;;;;;;;4.98;79.37;95382.47;5067231;28;20711;-72
2020/12/25 05:59:16;;;;;;;0.90;0.90;;;;;;;5.08;79.19;95380.63;5067213;28;20193;-73
2020/12/25 06:01:44;;;;;;;1.10;1.10;;;;;;;5.03;78.87;95393.00;5067654;28;20205;-73
2020/12/25 06:04:10;;;;;;;0.80;0.80;;;;;;;5.03;78.52;95391.25;5066785;28;20213;-75
2020/12/25 06:06:38;;;;;;;1.07;1.07;;;;;;;5.04;79.15;95394.59;5067369;28;20197;-73
2020/12/25 06:09:06;;;;;;;1.30;1.20;;;;;;;4.90;79.24;95402.78;5067129;28;20189;-73
2020/12/25 06:11:32;;;;;;;1.20;1.10;;;;;;;4.94;79.42;95404.91;5067560;28;20286;-73
2020/12/25 06:13:58;;;;;;;1.10;1.03;;;;;;;4.93;79.12;95398.19;5066710;28;20208;-73
2020/12/25 06:16:25;;;;;;;1.00;1.00;;;;;;;4.91;80.11;95406.94;5067101;28;20204;-75
2020/12/25 06:18:58;;;;;;;1.00;1.00;;;;;;;4.95;79.37;95409.06;5067051;28;20217;-74
2020/12/25 06:21:33;;;;;;;1.00;1.00;;;;;;;5.01;79.01;95407.66;5066942;28;20254;-75
2020/12/25 06:24:00;;;;;;;1.10;1.00;;;;;;;4.99;79.65;95418.03;5066892;28;20868;-72
2020/12/25 06:26:27;;;;;;;1.33;1.17;;;;;;;4.97;79.05;95419.91;5067234;28;20223;-73
2020/12/25 06:28:53;;;;;;;1.20;1.10;;;;;;;4.98;79.16;95426.63;5066813;28;20715;-72
2020/12/25 06:31:42;;;;;;;1.20;1.10;;;;;;;5.10;79.06;95422.91;5067055;28;20205;-71
2020/12/25 06:34:09;;;;;;;1.40;1.30;;;;;;;5.09;78.28;95425.59;5066309;28;20301;-72
2020/12/25 06:36:35;;;;;;;1.20;1.20;;;;;;;5.05;78.45;95427.63;5067221;28;20552;-74
2020/12/25 06:39:05;;;;;;;1.17;1.10;;;;;;;5.03;79.12;95439.72;5066697;28;20279;-73
2020/12/25 06:41:33;;;;;;;1.30;1.20;;;;;;;5.08;78.51;95431.63;5067000;28;20254;-74
2020/12/25 06:43:59;;;;;;;1.40;1.30;;;;;;;5.13;78.03;95440.47;5066910;28;20834;-73
2020/12/25 06:46:29;;;;;;;1.57;1.47;;;;;;;5.20;77.88;95438.13;5067332;28;20203;-74
2020/12/25 06:49:00;;;;;;;1.50;1.40;;;;;;;5.16;78.04;95449.59;5066599;28;20242;-73
2020/12/25 06:51:28;;;;;;;1.63;1.30;;;;;;;5.16;78.65;95447.84;5066552;28;20939;-73
2020/12/25 06:53:56;;;;;;;1.37;1.27;;;;;;;5.18;78.17;95456.16;5065965;28;20279;-75
2020/12/25 06:56:22;;;;;;;1.17;1.17;;;;;;;5.13;78.00;95458.34;5066386;28;20205;-73
2020/12/25 06:58:49;;;;;;;1.10;1.00;;;;;;;5.10;78.78;95468.81;5066379;28;20278;-75
2020/12/25 07:01:17;;;;;;;1.20;1.10;;;;;;;5.12;77.94;95474.59;5069050;28;20742;-72
2020/12/25 07:03:44;;;;;;;1.40;1.30;;;;;;;5.05;78.15;95478.66;5070337;28;20193;-72
2020/12/25 07:06:11;;;;;;;1.40;1.30;;;;;;;5.03;77.54;95478.00;5070329;28;20225;-73
2020/12/25 07:08:49;;;;;;;1.20;1.10;;;;;;;5.09;78.11;95479.19;5070502;28;20644;-73
2020/12/25 07:11:17;;;;;;;1.40;1.30;;;;;;;5.07;77.27;95486.97;5070780;28;20795;-73
2020/12/25 07:13:43;;;;;;;3.63;2.43;;;;;;;5.25;92.98;95491.28;5070502;28;20246;-70
2020/12/25 07:16:09;;;;;;;5.90;1.73;;;;;;;5.97;100.00;95500.47;5070648;28;20204;-72
2020/12/25 07:18:36;;;;;;;3.80;1.50;;;;;;;6.62;92.84;95496.50;5070635;28;20228;-71
2020/12/25 07:21:06;;;;;;;2.43;1.10;;;;;;;7.01;79.74;95496.00;5070522;28;20201;-74
2020/12/25 07:23:32;;;;;;;1.07;1.07;;;;;;;6.84;72.52;95497.72;5070372;28;20201;-75
2020/12/25 07:26:00;;;;;;;1.10;1.10;;;;;;;6.58;72.40;95495.22;5068374;28;20690;-73
2020/12/25 07:28:28;;;;;;;1.40;1.30;;;;;;;6.24;73.39;95506.25;5070186;28;20208;-73
2020/12/25 07:30:55;;;;;;;1.50;1.40;;;;;;;5.94;74.40;95505.91;5068709;28;20189;-72
2020/12/25 07:33:22;;;;;;;2.17;1.40;;;;;;;5.78;75.31;95511.66;5069447;28;20200;-72
2020/12/25 07:35:49;;;;;;;1.40;1.30;;;;;;;5.69;75.48;95510.81;5068039;28;20200;-73
2020/12/25 07:38:15;;;;;;;2.00;1.40;;;;;;;5.60;76.20;95523.66;5069497;28;20216;-74
2020/12/25 07:40:42;;;;;;;1.73;1.40;;;;;;;5.54;77.08;95525.06;5070178;28;20610;-73
2020/12/25 07:43:09;;;;;;;1.60;1.50;;;;;;;5.51;77.17;95528.69;5069235;28;20216;-73
2020/12/25 07:45:36;;;;;;;1.63;1.53;;;;;;;5.45;77.21;95526.72;5068977;28;20216;-74
2020/12/25 07:48:04;;;;;;;1.60;1.50;;;;;;;5.44;77.15;95534.53;5069600;28;20274;-73
2020/12/25 07:50:34;;;;;;;2.03;1.67;;;;;;;5.42;77.37;95541.53;5070108;28;20201;-72
2020/12/25 07:53:00;;;;;;;1.53;1.43;;;;;;;5.40;77.47;95534.00;5069426;28;20216;-72
2020/12/25 07:55:28;;;;;;;1.70;1.60;;;;;;;5.31;77.48;95537.44;5069160;28;20201;-75
2020/12/25 07:57:54;;;;;;;1.60;1.50;;;;;;;5.28;77.66;95536.94;5069766;28;20743;-74
2020/12/25 08:00:21;;;;;;;1.70;1.60;;;;;;;5.28;78.13;95540.28;5069118;28;20833;-75
2020/12/25 08:02:48;;;;;;;1.70;1.60;;;;;;;5.32;78.03;95539.06;5065438;28;20200;-74
2020/12/25 08:05:13;;;;;;;1.77;1.67;;;;;;;5.31;78.12;95536.66;5067458;28;20221;-75
2020/12/25 08:07:41;;;;;;;1.73;1.63;;;;;;;5.31;77.97;95542.56;5068066;28;20251;-70
2020/12/25 08:10:10;;;;;;;1.70;1.60;;;;;;;5.39;77.71;95540.06;5063617;28;20189;-75
2020/12/25 08:12:37;;;;;;;2.07;1.97;;;;;;;5.48;77.13;95546.06;5050534;28;20224;-74
2020/12/25 08:15:03;;;;;;;1.60;1.50;;;;;;;5.44;76.99;95539.63;5061622;28;20193;-72
2020/12/25 08:17:30;;;;;;;2.20;2.00;;;;;;;5.37;77.08;95546.28;5068469;28;20220;-73
2020/12/25 08:19:56;;;;;;;1.73;1.63;;;;;;;5.32;77.39;95543.34;5063875;28;20190;-74
2020/12/25 08:22:22;;;;;;;1.77;1.67;;;;;;;5.30;76.97;95542.69;5064659;28;20197;-75
2020/12/25 08:24:48;;;;;;;1.60;1.50;;;;;;;5.24;77.88;95545.81;5067532;28;20213;-76
2020/12/25 08:27:17;;;;;;;1.90;1.80;;;;;;;5.19;79.11;95552.19;5068134;28;20217;-75
2020/12/25 08:29:43;;;;;;;2.00;1.90;;;;;;;5.05;81.25;95544.19;5068020;28;20197;-75
2020/12/25 08:32:10;;;;;;;2.23;2.03;;;;;;;5.18;80.51;95553.13;5068618;28;20814;-75
2020/12/25 08:34:40;;;;;;;2.23;2.03;;;;;;;5.22;80.09;95556.16;5068013;28;20319;-73
2020/12/25 08:37:07;;;;;;;2.00;1.90;;;;;;;5.24;78.95;95553.47;5066834;28;20299;-71
2020/12/25 08:39:33;;;;;;;1.70;1.60;;;;;;;5.25;78.63;95562.75;5065566;28;20660;-73
2020/12/25 08:42:00;;;;;;;1.70;1.60;;;;;;;5.32;78.11;95566.34;5065508;28;20216;-74
2020/12/25 08:44:27;;;;;;;2.00;1.90;;;;;;;5.38;77.97;95568.31;5058290;28;20216;-73
2020/12/25 08:47:05;;;;;;;1.97;1.87;;;;;;;5.47;78.09;95572.53;5066779;28;20193;-74
2020/12/25 08:49:31;;;;;;;1.83;1.73;;;;;;;5.46;77.27;95579.41;5065845;28;20285;-73
2020/12/25 08:51:58;;;;;;;2.30;2.10;;;;;;;5.52;77.79;95586.50;5066362;28;20686;-73
2020/12/25 08:54:25;;;;;;;2.63;2.07;;;;;;;5.55;78.19;95581.09;5065843;28;20193;-73
2020/12/25 08:56:51;;;;;;;2.33;2.00;;;;;;;5.57;76.88;95586.06;5064406;28;20291;-73
2020/12/25 08:59:20;;;;;;;3.50;1.90;;;;;;;5.48;77.52;95584.38;5066459;28;20189;-73
2020/12/25 09:01:47;;;;;;;2.10;1.90;;;;;;;5.51;77.71;95594.28;5059142;28;20266;-74
2020/12/25 09:04:13;;;;;;;1.77;1.60;;;;;;;5.55;77.86;95590.50;5058908;28;20204;-75
2020/12/25 09:06:39;;;;;;;2.73;1.50;;;;;;;5.58;77.00;95600.41;5066694;28;20675;-75
2020/12/25 09:09:06;;;;;;;2.20;2.00;;;;;;;5.58;76.66;95595.28;5055153;28;20937;-75
2020/12/25 09:11:32;;;;;;;2.27;2.10;;;;;;;5.55;77.23;95603.28;5066583;28;20211;-75
2020/12/25 09:13:58;;;;;;;2.03;1.93;;;;;;;5.58;77.51;95608.06;5066118;28;20193;-75
2020/12/25 09:16:24;;;;;;;1.93;1.83;;;;;;;5.60;77.28;95608.72;5065478;28;20201;-75
2020/12/25 09:18:50;;;;;;;1.90;1.80;;;;;;;5.62;77.08;95613.69;5066027;28;20217;-76
2020/12/25 09:21:16;;;;;;;1.73;1.63;;;;;;;5.62;76.62;95609.38;5066020;28;20197;-76
2020/12/25 09:23:43;;;;;;;1.80;1.70;;;;;;;5.61;76.52;95612.09;5064224;28;20196;-75
2020/12/25 09:26:11;;;;;;;1.80;1.70;;;;;;;5.65;76.16;95615.97;5063872;28;20221;-75
2020/12/25 09:28:38;;;;;;;1.70;1.60;;;;;;;5.68;76.37;95615.66;5065749;28;20587;-76
2020/12/25 09:31:05;;;;;;;1.70;1.60;;;;;;;5.70;76.55;95614.59;5063918;28;20215;-78
2020/12/25 09:33:31;;;;;;;1.97;1.80;;;;;;;5.71;76.39;95610.28;5066043;28;20197;-77
2020/12/25 09:35:57;;;;;;;1.97;1.80;;;;;;;5.71;77.45;95607.72;5065647;28;20249;-76
2020/12/25 09:38:23;;;;;;;1.80;1.70;;;;;;;5.75;76.66;95611.59;5064731;28;20273;-75
2020/12/25 09:40:50;;;;;;;2.83;1.77;;;;;;;5.73;75.88;95609.19;5065652;28;20193;-74
2020/12/25 09:43:18;;;;;;;1.83;1.70;;;;;;;5.75;76.35;95609.84;5065227;28;20196;-74
2020/12/25 09:45:44;;;;;;;1.80;1.70;;;;;;;5.68;76.05;95611.38;5064906;28;20221;-72
2020/12/25 09:48:10;;;;;;;2.03;1.50;;;;;;;5.71;75.92;95610.28;5064987;28;20994;-74
2020/12/25 09:50:36;;;;;;;2.03;1.80;;;;;;;5.74;76.73;95623.56;5065745;28;20193;-76
2020/12/25 09:53:02;;;;;;;1.67;1.57;;;;;;;5.79;75.90;95618.81;5064943;28;20200;-73
2020/12/25 09:55:28;;;;;;;1.60;1.50;;;;;;;5.79;75.62;95612.88;5065724;28;20668;-73
2020/12/25 09:57:54;;;;;;;2.10;1.90;;;;;;;5.73;75.61;95621.97;5066111;28;20223;-72
2020/12/25 10:00:21;;;;;;;1.60;1.50;;;;;;;5.79;75.36;95610.34;5066146;28;20200;-76
2020/12/25 10:02:47;;;;;;;2.60;1.90;;;;;;;5.82;74.53;95612.59;5066054;28;20859;-75
2020/12/25 10:05:13;;;;;;;1.80;1.70;;;;;;;5.93;74.50;95612.44;5066170;28;20221;-75
2020/12/25 10:07:39;;;;;;;1.70;1.60;;;;;;;5.99;74.19;95618.69;5066231;28;20861;-76
2020/12/25 10:10:07;;;;;;;1.93;1.83;;;;;;;5.94;75.23;95616.59;5065955;28;20246;-75
2020/12/25 10:12:33;;;;;;;1.70;1.60;;;;;;;5.97;75.69;95608.59;5065907;28;20200;-75
2020/12/25 10:14:59;;;;;;;1.87;1.77;;;;;;;6.02;74.13;95614.09;5065907;28;20250;-75
2020/12/25 10:17:26;;;;;;;1.90;1.80;;;;;;;6.05;74.01;95618.91;5065928;28;20232;-75
2020/12/25 10:19:52;;;;;;;1.93;1.83;;;;;;;6.11;74.22;95615.75;5065620;28;20192;-75
2020/12/25 10:22:18;;;;;;;2.47;2.07;;;;;;;6.16;74.40;95613.53;5065275;28;20223;-75
2020/12/25 10:24:44;;;;;;;2.40;2.20;;;;;;;6.13;76.19;95621.53;5065867;28;20220;-75
2020/12/25 10:27:10;;;;;;;1.90;1.80;;;;;;;6.21;74.74;95619.03;5066030;28;20332;-76
2020/12/25 10:29:36;;;;;;;2.03;1.87;;;;;;;6.06;76.06;95624.81;5065608;28;20564;-75
2020/12/25 10:32:02;;;;;;;1.90;1.80;;;;;;;6.04;74.13;95622.41;5065949;28;20648;-75
2020/12/25 10:34:29;;;;;;;1.90;1.70;;;;;;;6.03;76.05;95625.91;5065598;28;20193;-76
2020/12/25 10:37:00;;;;;;;1.60;1.50;;;;;;;6.06;74.91;95617.94;5063391;28;20545;-75
2020/12/25 10:39:25;;;;;;;1.63;1.53;;;;;;;6.01;73.32;95620.16;5064174;28;20184;-75
2020/12/25 10:41:51;;;;;;;1.80;1.70;;;;;;;6.03;74.26;95614.88;5065892;28;20227;-75
2020/12/25 10:44:17;;;;;;;1.60;1.50;;;;;;;6.08;73.93;95617.81;5064477;28;20207;-75
2020/12/25 10:46:43;;;;;;;1.90;1.70;;;;;;;6.10;73.58;95615.91;5065941;28;20259;-73
2020/12/25 10:49:09;;;;;;;1.70;1.60;;;;;;;6.09;73.04;95621.97;5064409;28;20204;-72
2020/12/25 10:51:36;;;;;;;1.70;1.60;;;;;;;5.99;72.75;95619.47;5065237;28;20203;-74
2020/12/25 10:54:02;;;;;;;1.50;1.40;;;;;;;5.93;72.40;95620.09;5064388;28;20725;-72
2020/12/25 10:56:29;;;;;;;1.60;1.50;;;;;;;5.85;73.16;95622.53;5064791;28;20218;-74
2020/12/25 10:58:55;;;;;;;1.57;1.47;;;;;;;5.84;72.46;95631.16;5064772;28;20311;-73
2020/12/25 11:01:22;;;;;;;1.50;1.40;;;;;;;5.84;72.73;95613.25;5064521;28;20204;-73
2020/12/25 11:03:48;;;;;;;1.90;1.80;;;;;;;5.70;74.30;95626.56;5064163;28;20197;-75
2020/12/25 11:06:14;;;;;;;1.60;1.50;;;;;;;5.63;74.22;95621.22;5064745;28;20220;-72
2020/12/25 11:08:40;;;;;;;1.70;1.60;;;;;;;5.61;74.18;95622.31;5065505;28;20213;-73
2020/12/25 11:11:06;;;;;;;1.80;1.70;;;;;;;5.55;73.82;95616.03;5065053;28;20200;-74
2020/12/25 11:13:33;;;;;;;1.90;1.80;;;;;;;5.60;74.48;95623.25;5064855;28;20911;-73
2020/12/25 11:15:59;;;;;;;1.90;1.80;;;;;;;5.70;74.21;95621.44;5064349;28;20204;-76
2020/12/25 11:18:25;;;;;;;2.17;1.97;;;;;;;5.66;74.42;95623.47;5064281;28;20213;-72
2020/12/25 11:20:51;;;;;;;1.90;1.73;;;;;;;5.68;74.04;95626.69;5064804;28;20208;-72
2020/12/25 11:23:17;;;;;;;1.70;1.60;;;;;;;5.77;73.21;95628.34;5064847;28;20700;-75
2020/12/25 11:25:44;;;;;;;1.83;1.73;;;;;;;5.80;72.44;95614.50;5064596;28;20220;-74
2020/12/25 11:28:10;;;;;;;2.40;2.00;;;;;;;5.81;72.69;95627.13;5064665;28;20339;-74
2020/12/25 11:30:36;;;;;;;1.90;1.80;;;;;;;5.77;72.82;95612.25;5064746;28;20664;-74
2020/12/25 11:33:02;;;;;;;2.13;1.93;;;;;;;5.81;72.63;95622.03;5064713;28;20197;-76
2020/12/25 11:35:28;;;;;;;1.87;1.77;;;;;;;5.81;72.94;95619.47;5064128;28;20205;-73
2020/12/25 11:37:53;;;;;;;2.10;1.90;;;;;;;5.91;72.38;95621.19;5064726;28;20213;-72
2020/12/25 11:40:19;;;;;;;2.03;1.93;;;;;;;5.83;73.58;95625.22;5064598;28;20700;-74